NCAR-RAP Real-Time Weather Data

Output produced by METARs form (17 October 2018  17:14 UTC)
found at http://weather.rap.ucar.edu/surface/
 
RJOI 171655Z 30008KT 9999 SCT200 16/12 A2994 RMK SLP139 T01560117
RJOI 171555Z 31007KT 9999 FEW030 16/12 A2994 RMK SLP139 T01610117
RJOI 171455Z 30007KT 9999 SKC 17/12 A2993 RMK SLP136 T01670117 402330150 54000
RJOI 171355Z 30007KT 9999 FEW210 17/12 A2993 RMK SLP136 T01720122
RJOI 171255Z 31006KT 9999 SCT210 18/12 A2994 RMK SLP137 T01780122
RJOI 171155Z 31005KT 9999 FEW030 BKN200 18/12 A2993 RMK SLP135 T01830117 10228 20183 51010
RJOI 171055Z 30007KT 9999 FEW030 FEW050 BKN230 19/12 A2992 RMK SLP132 T01890122
RJOI 170955Z 31003KT 9999 FEW030 FEW050 BKN230 20/12 A2991 RMK SLP128 T02000122
RJOI 170855Z 20007KT 9999 FEW030 FEW050 BKN230 21/12 A2990 RMK SLP123 T02060117 53010
RJOI 170755Z COR 19007KT 9999 FEW030 FEW050 BKN230 21/10 A2989 RMK SLP121 T02110100
RJOI 170655Z 19006KT 9999 FEW030 BKN230 21/11 A2988 RMK SLP119 T02110106
RJOI 170555Z 19008KT 9999 FEW030 BKN050 BKN230 23/11 A2988 RMK SLP117 T02280106 10233 20194 55010
RJOI 170455Z 11004KT 9999 FEW030 SCT045 BKN230 22/09 A2987 RMK SLP113 T02220089
RJOI 170355Z 07004KT 9999 FEW030 FEW045 SCT230 23/09 A2988 RMK SLP116 T02280089
RJOI 170255Z VRB05KT 9999 FEW025 BKN230 22/11 A2990 RMK SLP126 T02220106 58007
RJOI 170155Z 06004KT 9999 FEW025 BKN230 22/11 A2992 RMK SLP131 T02170111
RJOI 170055Z 04005KT 9999 FEW025 BKN230 21/12 A2993 RMK SLP133 T02060122
RJOI 162355Z 00000KT 9999 FEW020 FEW230 19/12 A2993 RMK SLP134 T01940117 10194 20150 51007
RJOI 162255Z 29003KT 9999 FEW020 FEW230 17/11 A2993 RMK SLP134 T01720111
RJOI 162155Z 30006KT 9999 FEW030 FEW090 16/11 A2992 RMK SLP130 T01560111
RJOI 162055Z 30006KT 9999 FEW030 FEW090 16/12 A2990 RMK SLP125 6//// T01560111 52010
RJOI 161955Z 31005KT 9999 BKN120 16/12 A2988 RMK SLP119 T01610117
RJOI 161855Z 31005KT 9999 OVC100 17/12 A2988 RMK SLP117 T01670117
RJOI 161555Z 32005KT 9999 OVC100 18/13 A2987 RMK SLP116 T01780128
RJOI 161455Z COR 30005KT 9999 OVC090 18/12 A2989 RMK SLP121 6//// T01830122 402280150 50000
RJOI 161355Z 30004KT 9999 OVC100 18/13 A2990 RMK SLP124 T01780133
RJOI 161255Z 30006KT 9999 SCT050 OVC110 18/13 A2990 RMK SLP125 T01830128
RJOI 161155Z 34005KT 9999 SCT050 OVC100 19/12 A2989 RMK SLP120 6//// 7//// T01940122 10217 20194 52017
RJOI 161055Z COR 35006KT 9999 SCT050 OVC100 20/13 A2988 RMK SLP119 T02000128
RJOI 160955Z 33007KT 9999 FEW030 SCT070 BKN100 21/13 A2988 RMK SLP116 T02060133
RJOI 160855Z 00000KT 9999 SCT040 BKN070 BKN120 21/13 A2986 RMK SHRAB0756E22 SLP110 P0000 60000 T02110133 58003
RJOI 160755Z 22003KT 9999 VCSH FEW030 SCT110 BKN160 21/13 A2987 RMK SLP115 VCSH W T02110133
RJOI 160655Z 22003KT 9999 FEW025 SCT090 BKN140 21/14 A2987 RMK SLP115 T02110139
RJOI 160555Z 21004KT 9999 FEW025 FEW090 BKN180 22/13 A2987 RMK SLP113 T02170133 10228 20178 56020
RJOI 160455Z 19004KT 9999 FEW025 BKN090 BKN180 22/13 A2988 RMK SLP117 T02220133
RJOI 160355Z 11004KT 9999 FEW030 BKN070 BKN150 21/12 A2991 RMK SLP127 T02110122
RJOI 160255Z 05006KT 9999 FEW030 BKN120 BKN180 22/12 A2992 RMK SLP132 T02220122 57024
RJOI 160155Z 04010KT 9999 FEW030 SCT100 BKN240 22/11 A2995 RMK SLP140 T02170111
RJOI 160055Z 36007KT 9999 FEW030 SCT080 BKN200 21/13 A2998 RMK SLP151 CONTRAIL N T02110128
RJOI 152355Z 30005KT 9999 FEW040 FEW100 BKN200 18/12 A3000 RMK SLP158 T01780117 10178 20150 55000
RJOI 152255Z 30006KT 9999 FEW040 FEW100 BKN200 17/11 A3000 RMK SLP159 T01670111
RJOI 152155Z 30006KT 9999 FEW040 SCT100 BKN200 15/11 A2999 RMK SLP155 T01500111
RJOI 152055Z 30007KT 9999 FEW030 SCT045 BKN120 15/11 A2999 RMK SLP156 T01500111 56007
RJOI 151955Z 30006KT 9999 FEW030 SCT100 BKN230 15/11 A3000 RMK SLP158 T01500111
RJOI 151855Z 30006KT 9999 FEW030 SCT100 BKN230 15/11 A3000 RMK SLP159 T1500111
RJOI 151755Z 30006KT 9999 FEW030 SCT100 BKN230 16/11 A3001 RMK SLP163 T01560111 10178 20156 58003
RJOI 151655Z 31007KT 9999 FEW030 SCT230 16/11 A3003 RMK SLP169 T01560111
RJOI 151555Z 30006KT 9999 FEW030 FEW100 SCT230 16/11 A3003 RMK SLP169 T01610111
RJOI 151455Z 30007KT 9999 FEW030 FEW100 SCT270 17/12 A3003 RMK SLP168 T01670117 402330161 50000
RJOI 151355Z 31008KT 9999 FEW030 BKN200 17/12 A3003 RMK SLP169 T01720117
RJOI 151255Z 30007KT 9999 FEW030 SCT200 17/12 A3004 RMK SLP172 T01720117
RJOI 151155Z 29006KT 9999 FEW030 SCT200 18/12 A3002 RMK SLP166 7//// T01780122 10233 20178 50007
RJOI 151055Z 30005KT 9999 FEW030 BKN200 19/13 A3004 RMK SLP171 T01890128
RJOI 150955Z 30005KT 9999 SCT030 BKN200 20/13 A3002 RMK SLP166 T02000128
RJOI 150855Z 25003KT 9999 SCT030 BKN200 21/12 A3001 RMK SLP160 6//// T02060122 55000
RJOI 150755Z 17005KT 9999 SCT030 BKN200 22/12 A3000 RMK SLP158 T02220117
RJOI 150655Z 17008KT 9999 SCT030 BKN200 23/14 A3001 RMK SLP161 T02280144
RJOI 150555Z 16008KT 9999 SCT030 BKN200 23/14 A3001 RMK SLP160 6//// T02280139 10233 20194 55014